French Lick, Indiana
Current Conditions -  °F | °C
As of 2:35 PM on Monday 22 Dec 2014 (Local Time) from KHNB Reporting Station
Broken Clouds Broken Clouds  
Wind Chill: 50°   Ceiling: 2900
Heat Index: 50°   Visibility: 10mi
Dew Point: 43°   Wind: 14mph
Humidity: 76%   Direction: 130°SE
Pressure: 29.76"   Gusts: NA
Location:  38.55°N, 86.62°W
Report Text: KHNB 221935Z AUTO 13012KT 10SM BKN029 10/06 A2976 RMK AO1
Loading
Personal Weather Stations






























Interactive Weather Map New forecast layout! Learn more

10-Day Weather Forecast

Advertisements
Track Severe Weather on mobile